Time;durP1;ratioP1;P1;durP2;ratioP2;P2;SDS_P1;SDS_P2;PMS_P1;PMS_P2;Temp;Humidity;BMP_temperature;BMP_pressure;BME280_temperature;BME280_humidity;BME280_pressure;Samples;Min_cycle;Max_cycle;Signal;HPM_P1;HPM_P2
2021/07/14 00:01:40;;;;;;;35.73;16.00;;;;;;;;;;5133903;28;20434;-53
2021/07/14 00:04:21;;;;;;;19.93;8.03;;;;;;;;;;5134882;28;20535;-55
2021/07/14 00:06:48;;;;;;;22.63;11.70;;;;;;;;;;5136903;28;20481;-51
2021/07/14 00:09:17;;;;;;;245.33;103.47;;;;;;;;;;5135855;28;20437;-53
2021/07/14 00:12:03;;;;;;;132.30;55.00;;;;;;;;;;5133709;28;20479;-56
2021/07/14 00:17:28;;;;;;;67.80;33.80;;;;;;;;;;5134783;28;20423;-54
2021/07/14 00:22:43;;;;;;;8.40;5.00;;;;;;;;;;5135125;28;20434;-58
2021/07/14 00:25:14;;;;;;;20.27;12.37;;;;;;;;;;5136532;28;20437;-54
2021/07/14 00:27:44;;;;;;;12.57;5.00;;;;;;;;;;5144851;27;20458;-55
2021/07/14 00:30:15;;;;;;;14.27;4.90;;;;;;;;;;5136587;28;20450;-55
2021/07/14 00:32:44;;;;;;;9.10;4.40;;;;;;;;;;5136523;28;20463;-54
2021/07/14 00:35:12;;;;;;;7.43;4.80;;;;;;;;;;5135347;28;20455;-55
2021/07/14 00:37:40;;;;;;;11.03;5.83;;;;;;;;;;5137312;28;20502;-54
2021/07/14 00:40:09;;;;;;;8.87;4.90;;;;;;;;;;5137614;28;20462;-55
2021/07/14 00:42:38;;;;;;;9.77;4.03;;;;;;;;;;5136702;28;20488;-59
2021/07/14 00:45:06;;;;;;;5.77;3.60;;;;;;;;;;5137120;28;20493;-57
2021/07/14 00:47:34;;;;;;;5.77;3.50;;;;;;;;;;5136350;28;20461;-55
2021/07/14 00:50:02;;;;;;;4.07;3.23;;;;;;;;;;5138223;28;20504;-55
2021/07/14 00:52:52;;;;;;;6.10;3.47;;;;;;;;;;5137853;28;20431;-57
2021/07/14 00:55:19;;;;;;;5.17;3.57;;;;;;;;;;5136993;28;20460;-55
2021/07/14 00:57:49;;;;;;;5.77;2.60;;;;;;;;;;5137112;28;20419;-58
2021/07/14 01:00:26;;;;;;;7.30;3.40;;;;;;;;;;5137824;28;20523;-58
2021/07/14 01:02:53;;;;;;;8.00;2.87;;;;;;;;;;5136010;28;20460;-53
2021/07/14 01:05:23;;;;;;;3.80;2.20;;;;;;;;;;5136193;28;20566;-53
2021/07/14 01:07:58;;;;;;;3.90;2.77;;;;;;;;;;5136634;28;20466;-57
2021/07/14 01:10:28;;;;;;;12.30;3.30;;;;;;;;;;5135447;28;20488;-57
2021/07/14 01:13:03;;;;;;;6.40;2.30;;;;;;;;;;5136712;28;20440;-54
2021/07/14 01:15:35;;;;;;;6.53;2.40;;;;;;;;;;5135807;28;20461;-60
2021/07/14 01:18:04;;;;;;;5.13;1.93;;;;;;;;;;5135309;28;20458;-57
2021/07/14 01:20:42;;;;;;;6.03;1.97;;;;;;;;;;5135433;28;20568;-56
2021/07/14 01:23:17;;;;;;;2.93;1.60;;;;;;;;;;5135707;28;20464;-55
2021/07/14 01:26:03;;;;;;;6.43;2.70;;;;;;;;;;5134832;28;20742;-52
2021/07/14 01:28:33;;;;;;;7.87;2.57;;;;;;;;;;5134809;28;20450;-54
2021/07/14 01:31:01;;;;;;;6.80;3.10;;;;;;;;;;5135576;28;20480;-54
2021/07/14 01:33:41;;;;;;;4.60;2.27;;;;;;;;;;5126614;28;20467;-56
2021/07/14 01:36:10;;;;;;;6.33;1.83;;;;;;;;;;5115174;28;20543;-56
2021/07/14 01:38:39;;;;;;;3.10;1.90;;;;;;;;;;5115103;28;20515;-54
2021/07/14 01:41:07;;;;;;;6.67;2.10;;;;;;;;;;5114574;28;20482;-57
2021/07/14 01:43:38;;;;;;;2.93;2.27;;;;;;;;;;5115496;28;20459;-53
2021/07/14 01:46:09;;;;;;;3.20;2.53;;;;;;;;;;5114838;28;20440;-56
2021/07/14 01:48:38;;;;;;;6.83;2.53;;;;;;;;;;5114818;28;20447;-53
2021/07/14 01:51:05;;;;;;;19.87;3.40;;;;;;;;;;5114558;28;20861;-55
2021/07/14 01:56:39;;;;;;;4.77;2.50;;;;;;;;;;5129344;28;20465;-50
2021/07/14 01:59:07;;;;;;;7.03;3.23;;;;;;;;;;5134054;28;20490;-55
2021/07/14 02:01:39;;;;;;;5.80;2.27;;;;;;;;;;5134408;28;20499;-57
2021/07/14 02:06:53;;;;;;;5.30;2.30;;;;;;;;;;5134115;28;20433;-55
2021/07/14 02:09:30;;;;;;;7.60;2.77;;;;;;;;;;5134510;28;20480;-56
2021/07/14 02:11:59;;;;;;;5.93;2.73;;;;;;;;;;5135271;28;20453;-55
2021/07/14 02:14:31;;;;;;;3.63;1.90;;;;;;;;;;5135292;28;20489;-55
2021/07/14 02:17:00;;;;;;;10.10;2.00;;;;;;;;;;5134264;28;20481;-54
2021/07/14 02:19:31;;;;;;;4.33;2.23;;;;;;;;;;5107276;28;20476;-54
2021/07/14 02:21:58;;;;;;;3.63;2.50;;;;;;;;;;5093483;28;20460;-57
2021/07/14 02:24:31;;;;;;;8.97;2.30;;;;;;;;;;5103445;28;20461;-56
2021/07/14 02:27:04;;;;;;;4.77;1.83;;;;;;;;;;5119305;28;20519;-57
2021/07/14 02:29:33;;;;;;;3.03;2.43;;;;;;;;;;5113894;28;20470;-56
2021/07/14 02:32:15;;;;;;;4.57;2.40;;;;;;;;;;5113447;28;20488;-52
2021/07/14 02:34:44;;;;;;;5.27;2.10;;;;;;;;;;5113508;28;20452;-57
2021/07/14 02:37:12;;;;;;;8.37;4.13;;;;;;;;;;5113698;28;20469;-54
2021/07/14 02:39:41;;;;;;;3.30;2.43;;;;;;;;;;5098962;28;20490;-53
2021/07/14 02:42:12;;;;;;;3.10;2.20;;;;;;;;;;5092953;28;20460;-55
2021/07/14 02:44:44;;;;;;;4.33;2.10;;;;;;;;;;5092682;28;20440;-55
2021/07/14 02:47:18;;;;;;;8.70;2.33;;;;;;;;;;5093873;28;20502;-56
2021/07/14 02:49:45;;;;;;;5.10;1.90;;;;;;;;;;5106282;28;20451;-55
2021/07/14 02:52:14;;;;;;;5.30;2.37;;;;;;;;;;5106407;28;20463;-55
2021/07/14 02:54:43;;;;;;;4.00;2.20;;;;;;;;;;5114812;28;20470;-55
2021/07/14 02:57:13;;;;;;;3.40;2.60;;;;;;;;;;5114159;28;20447;-56
2021/07/14 02:59:55;;;;;;;7.97;2.50;;;;;;;;;;5113950;28;20475;-57
2021/07/14 03:02:23;;;;;;;6.00;3.10;;;;;;;;;;5107982;28;20452;-53
2021/07/14 03:04:53;;;;;;;7.23;3.10;;;;;;;;;;5094070;28;20456;-55
2021/07/14 03:07:30;;;;;;;4.20;2.70;;;;;;;;;;5094499;28;20455;-59
2021/07/14 03:09:59;;;;;;;7.43;2.77;;;;;;;;;;5095275;28;20440;-55
2021/07/14 03:12:41;;;;;;;4.67;2.63;;;;;;;;;;5097702;28;20435;-55
2021/07/14 03:15:11;;;;;;;6.40;3.53;;;;;;;;;;5114333;28;20452;-57
2021/07/14 03:17:39;;;;;;;5.57;3.03;;;;;;;;;;5092518;28;20475;-52
2021/07/14 03:20:18;;;;;;;3.80;3.20;;;;;;;;;;5096100;28;20582;-57
2021/07/14 03:22:46;;;;;;;5.77;3.57;;;;;;;;;;5106214;28;20495;-56
2021/07/14 03:25:14;;;;;;;7.13;3.60;;;;;;;;;;5098103;28;20451;-55
2021/07/14 03:28:05;;;;;;;9.23;3.80;;;;;;;;;;5097504;28;20459;-54
2021/07/14 03:30:34;;;;;;;7.43;4.17;;;;;;;;;;5097559;28;20440;-56
2021/07/14 03:33:30;;;;;;;10.30;4.57;;;;;;;;;;5108720;28;20442;-59
2021/07/14 03:36:24;;;;;;;7.77;4.27;;;;;;;;;;5112362;28;20439;-61
2021/07/14 03:38:53;;;;;;;5.03;4.07;;;;;;;;;;5108449;28;20447;-56
2021/07/14 03:41:20;;;;;;;8.80;3.50;;;;;;;;;;5116763;28;20454;-58
2021/07/14 03:43:56;;;;;;;5.33;4.03;;;;;;;;;;5109381;28;20478;-55
2021/07/14 03:46:31;;;;;;;4.63;3.40;;;;;;;;;;5108669;28;20457;-57
2021/07/14 03:48:59;;;;;;;12.70;3.63;;;;;;;;;;5105591;28;20479;-54
2021/07/14 03:51:28;;;;;;;5.97;4.50;;;;;;;;;;5096457;28;20436;-55
2021/07/14 03:53:56;;;;;;;8.87;4.23;;;;;;;;;;5106049;28;20475;-52
2021/07/14 03:56:24;;;;;;;13.30;3.37;;;;;;;;;;5101725;28;20480;-56
2021/07/14 03:58:52;;;;;;;5.20;3.93;;;;;;;;;;5137431;28;20442;-54
2021/07/14 04:01:20;;;;;;;5.07;3.43;;;;;;;;;;5123858;28;20979;-52
2021/07/14 04:03:49;;;;;;;4.03;3.30;;;;;;;;;;5115661;28;20455;-51
2021/07/14 04:06:18;;;;;;;8.23;3.63;;;;;;;;;;5116719;28;20482;-54
2021/07/14 04:08:46;;;;;;;12.40;4.47;;;;;;;;;;5116546;28;20431;-55
2021/07/14 04:11:14;;;;;;;7.17;4.30;;;;;;;;;;5116004;28;20508;-57
2021/07/14 04:13:47;;;;;;;8.53;3.97;;;;;;;;;;5116789;28;20459;-55
2021/07/14 04:16:15;;;;;;;7.40;4.30;;;;;;;;;;5115810;28;20737;-56
2021/07/14 04:18:42;;;;;;;5.73;3.70;;;;;;;;;;5116620;28;20493;-55
2021/07/14 04:21:17;;;;;;;7.03;3.90;;;;;;;;;;5117506;28;20473;-57
2021/07/14 04:23:44;;;;;;;5.50;4.40;;;;;;;;;;5116677;28;20447;-52
2021/07/14 04:26:12;;;;;;;4.53;3.40;;;;;;;;;;5116572;28;20462;-57
2021/07/14 04:28:40;;;;;;;9.70;3.70;;;;;;;;;;5104079;28;20460;-57
2021/07/14 04:31:07;;;;;;;7.10;4.00;;;;;;;;;;5095043;28;20440;-58
2021/07/14 04:33:35;;;;;;;6.23;3.27;;;;;;;;;;5095909;28;20467;-53
2021/07/14 04:36:45;;;;;;;12.23;4.90;;;;;;;;;;5096210;28;20471;-57
2021/07/14 04:39:13;;;;;;;4.73;3.63;;;;;;;;;;5096988;28;20502;-52
2021/07/14 04:47:10;;;;;;;5.10;2.70;;;;;;;;;;5102124;28;20466;-58
2021/07/14 04:49:39;;;;;;;6.87;4.57;;;;;;;;;;5116588;28;20368;-59
2021/07/14 04:52:09;;;;;;;8.57;3.50;;;;;;;;;;5107231;28;20459;-57
2021/07/14 04:54:39;;;;;;;6.37;2.80;;;;;;;;;;5111196;28;20738;-57
2021/07/14 04:57:08;;;;;;;10.03;3.53;;;;;;;;;;5095842;28;20539;-56
2021/07/14 04:59:36;;;;;;;6.30;3.20;;;;;;;;;;5095677;28;20468;-56
2021/07/14 05:02:05;;;;;;;5.37;2.77;;;;;;;;;;5098467;28;20503;-57
2021/07/14 05:04:33;;;;;;;5.33;3.07;;;;;;;;;;5115929;28;20460;-54
2021/07/14 05:07:11;;;;;;;5.90;3.70;;;;;;;;;;5096721;28;20487;-57
2021/07/14 05:09:40;;;;;;;4.53;3.20;;;;;;;;;;5100491;28;20469;-56
2021/07/14 05:12:08;;;;;;;7.20;3.00;;;;;;;;;;5110706;28;20513;-56
2021/07/14 05:14:48;;;;;;;11.37;4.43;;;;;;;;;;5115331;28;20455;-54
2021/07/14 05:17:15;;;;;;;11.10;5.87;;;;;;;;;;5115103;28;20470;-56
2021/07/14 05:19:42;;;;;;;5.00;3.20;;;;;;;;;;5105245;28;20466;-58
2021/07/14 05:22:28;;;;;;;7.73;4.20;;;;;;;;;;5108727;28;20456;-56
2021/07/14 05:24:58;;;;;;;10.70;3.83;;;;;;;;;;5106601;28;20491;-57
2021/07/14 05:27:25;;;;;;;11.80;4.23;;;;;;;;;;5114402;28;20494;-56
2021/07/14 05:30:00;;;;;;;6.93;3.67;;;;;;;;;;5113291;28;20454;-55
2021/07/14 05:32:27;;;;;;;8.20;3.30;;;;;;;;;;5095593;28;20467;-55
2021/07/14 05:34:55;;;;;;;8.23;3.97;;;;;;;;;;5095340;28;20496;-55
2021/07/14 05:37:23;;;;;;;9.23;4.57;;;;;;;;;;5094814;28;20479;-57
2021/07/14 05:39:50;;;;;;;7.77;3.33;;;;;;;;;;5098435;28;20542;-57
2021/07/14 05:42:20;;;;;;;6.23;4.07;;;;;;;;;;5114607;28;20508;-58
2021/07/14 05:45:00;;;;;;;7.10;4.60;;;;;;;;;;5114922;28;20467;-61
2021/07/14 05:47:48;;;;;;;6.93;4.30;;;;;;;;;;5115331;28;20720;-58
2021/07/14 05:53:18;;;;;;;12.10;4.20;;;;;;;;;;5113129;28;20465;-55
2021/07/14 05:55:46;;;;;;;9.03;4.23;;;;;;;;;;5115134;28;20439;-59
2021/07/14 05:58:16;;;;;;;11.20;4.70;;;;;;;;;;5103331;28;20475;-58
2021/07/14 06:00:44;;;;;;;7.27;4.03;;;;;;;;;;5078119;28;20521;-53
2021/07/14 06:03:11;;;;;;;11.33;4.57;;;;;;;;;;5093443;28;20472;-58
2021/07/14 06:05:46;;;;;;;5.03;4.10;;;;;;;;;;5113191;28;20548;-57
2021/07/14 06:08:13;;;;;;;7.43;4.20;;;;;;;;;;5113180;28;20485;-57
2021/07/14 06:10:40;;;;;;;7.30;4.30;;;;;;;;;;5108327;28;20525;-57
2021/07/14 06:13:11;;;;;;;6.90;4.37;;;;;;;;;;5103192;28;20459;-57
2021/07/14 06:15:40;;;;;;;10.43;5.50;;;;;;;;;;5114225;28;20574;-57
2021/07/14 06:18:14;;;;;;;7.67;4.47;;;;;;;;;;5113788;28;20459;-59
2021/07/14 06:20:41;;;;;;;8.50;4.97;;;;;;;;;;5099174;28;20480;-57
2021/07/14 06:23:09;;;;;;;14.30;4.73;;;;;;;;;;5093600;28;20523;-55
2021/07/14 06:28:40;;;;;;;5.23;4.20;;;;;;;;;;5113305;28;20519;-62
2021/07/14 06:31:09;;;;;;;6.17;4.10;;;;;;;;;;5118131;28;20455;-56
2021/07/14 06:33:38;;;;;;;9.47;6.27;;;;;;;;;;5112158;28;20462;-57
2021/07/14 06:36:06;;;;;;;7.43;4.57;;;;;;;;;;5122410;28;20464;-56
2021/07/14 06:38:37;;;;;;;8.00;5.33;;;;;;;;;;5119507;28;20485;-54
2021/07/14 06:41:06;;;;;;;7.10;4.73;;;;;;;;;;5115669;28;20474;-57
2021/07/14 06:43:45;;;;;;;7.80;5.37;;;;;;;;;;5118502;28;20466;-57
2021/07/14 06:46:25;;;;;;;9.07;5.37;;;;;;;;;;5133018;28;20536;-57
2021/07/14 06:48:54;;;;;;;8.20;4.73;;;;;;;;;;5116942;28;20830;-54
2021/07/14 06:51:21;;;;;;;9.07;6.10;;;;;;;;;;5112223;28;20460;-54
2021/07/14 06:53:49;;;;;;;6.73;4.10;;;;;;;;;;5112740;28;20466;-59
2021/07/14 06:56:16;;;;;;;6.27;4.30;;;;;;;;;;5124002;28;20474;-56
2021/07/14 06:58:50;;;;;;;7.93;4.17;;;;;;;;;;5102249;28;20436;-56
2021/07/14 07:01:18;;;;;;;6.20;4.83;;;;;;;;;;5091728;28;20480;-58
2021/07/14 07:03:51;;;;;;;7.97;5.13;;;;;;;;;;5094192;28;20448;-58
2021/07/14 07:06:27;;;;;;;11.03;5.43;;;;;;;;;;5124494;28;20501;-58
2021/07/14 07:08:54;;;;;;;6.63;3.90;;;;;;;;;;5132888;28;20487;-57
2021/07/14 07:11:21;;;;;;;6.10;4.67;;;;;;;;;;5132234;28;20515;-62
2021/07/14 07:13:50;;;;;;;7.50;5.50;;;;;;;;;;5130641;28;20637;-58
2021/07/14 07:16:17;;;;;;;3.80;2.70;;;;;;;;;;5130200;28;20576;-58
2021/07/14 07:18:44;;;;;;;5.27;4.20;;;;;;;;;;5109853;28;20439;-57
2021/07/14 07:21:43;;;;;;;5.30;3.90;;;;;;;;;;5111315;28;20480;-58
2021/07/14 07:24:12;;;;;;;5.00;3.47;;;;;;;;;;5109267;28;20439;-58
2021/07/14 07:27:11;;;;;;;7.63;4.30;;;;;;;;;;5117774;28;20472;-59
2021/07/14 07:29:39;;;;;;;3.77;2.80;;;;;;;;;;5121423;28;20466;-56
2021/07/14 07:32:08;;;;;;;4.03;3.07;;;;;;;;;;5131605;28;20522;-57
2021/07/14 07:34:36;;;;;;;4.50;3.50;;;;;;;;;;5116389;28;20513;-57
2021/07/14 07:37:03;;;;;;;4.07;3.10;;;;;;;;;;5127864;28;20462;-58
2021/07/14 07:39:32;;;;;;;4.53;3.33;;;;;;;;;;5128859;28;20462;-57
2021/07/14 07:42:03;;;;;;;4.23;3.77;;;;;;;;;;5130491;28;20500;-58
2021/07/14 07:44:31;;;;;;;4.13;2.73;;;;;;;;;;5131266;28;20532;-58
2021/07/14 07:46:58;;;;;;;5.53;2.83;;;;;;;;;;5111630;28;20501;-58
2021/07/14 07:49:43;;;;;;;3.90;3.00;;;;;;;;;;5110071;28;20756;-58
2021/07/14 07:52:10;;;;;;;5.20;3.90;;;;;;;;;;5110574;28;20455;-58
2021/07/14 07:54:40;;;;;;;6.00;3.63;;;;;;;;;;5111247;28;20451;-57
2021/07/14 07:57:10;;;;;;;4.87;3.77;;;;;;;;;;5110837;28;20467;-58
2021/07/14 07:59:40;;;;;;;5.57;3.70;;;;;;;;;;5115737;28;20474;-55
2021/07/14 08:02:17;;;;;;;4.67;3.97;;;;;;;;;;5130887;28;20482;-57
2021/07/14 08:04:45;;;;;;;5.97;4.50;;;;;;;;;;5129560;28;20446;-53
2021/07/14 08:07:12;;;;;;;7.07;3.70;;;;;;;;;;5101865;28;20448;-54
2021/07/14 08:09:50;;;;;;;9.00;5.67;;;;;;;;;;5094617;28;20466;-58
2021/07/14 08:12:17;;;;;;;4.83;3.60;;;;;;;;;;5109861;28;20479;-58
2021/07/14 08:14:45;;;;;;;8.97;5.17;;;;;;;;;;5114545;28;20463;-58
2021/07/14 08:17:31;;;;;;;7.87;4.03;;;;;;;;;;5110194;28;20479;-56
2021/07/14 08:20:00;;;;;;;4.37;3.97;;;;;;;;;;5111708;28;20628;-59
2021/07/14 08:22:29;;;;;;;5.83;4.23;;;;;;;;;;5114244;28;20506;-58
2021/07/14 08:24:59;;;;;;;5.80;4.43;;;;;;;;;;5113857;28;20467;-60
2021/07/14 08:27:26;;;;;;;5.27;4.23;;;;;;;;;;5110828;28;20716;-58
2021/07/14 08:29:58;;;;;;;5.47;4.20;;;;;;;;;;5100857;28;20482;-57
2021/07/14 08:32:28;;;;;;;4.93;3.80;;;;;;;;;;5114814;28;20443;-58
2021/07/14 08:34:56;;;;;;;6.40;4.30;;;;;;;;;;5111770;28;20719;-58
2021/07/14 08:37:24;;;;;;;6.33;4.53;;;;;;;;;;5099402;28;20549;-56
2021/07/14 08:39:52;;;;;;;6.20;4.77;;;;;;;;;;5094497;28;20459;-54
2021/07/14 08:42:22;;;;;;;5.07;4.20;;;;;;;;;;5097644;28;20517;-54
2021/07/14 08:44:50;;;;;;;4.10;3.47;;;;;;;;;;5113717;28;20498;-56
2021/07/14 08:47:22;;;;;;;5.73;3.90;;;;;;;;;;5105562;28;20522;-57
2021/07/14 08:49:56;;;;;;;3.77;3.23;;;;;;;;;;5126594;28;20474;-57
2021/07/14 08:52:24;;;;;;;3.30;2.80;;;;;;;;;;5135082;28;20551;-57
2021/07/14 08:55:12;;;;;;;4.73;3.20;;;;;;;;;;5155965;27;20526;-55
2021/07/14 08:57:49;;;;;;;6.50;4.47;;;;;;;;;;5157101;27;20498;-56
2021/07/14 09:00:29;;;;;;;3.90;3.20;;;;;;;;;;5114845;28;20460;-58
2021/07/14 09:05:59;;;;;;;4.10;3.10;;;;;;;;;;5128015;28;20560;-59
2021/07/14 09:08:27;;;;;;;5.20;3.20;;;;;;;;;;5133833;28;20458;-57
2021/07/14 09:10:55;;;;;;;4.70;3.73;;;;;;;;;;5133633;28;20454;-57
2021/07/14 09:13:34;;;;;;;3.73;3.40;;;;;;;;;;5135055;28;20448;-55
2021/07/14 09:16:06;;;;;;;4.90;3.67;;;;;;;;;;5119730;28;20534;-58
2021/07/14 09:18:37;;;;;;;6.00;4.30;;;;;;;;;;5114609;28;20458;-58
2021/07/14 09:21:26;;;;;;;5.10;4.17;;;;;;;;;;5113651;28;20555;-58
2021/07/14 09:23:53;;;;;;;4.40;3.40;;;;;;;;;;5113338;27;20485;-59
2021/07/14 09:29:26;;;;;;;4.80;4.20;;;;;;;;;;5121065;28;20839;-58
2021/07/14 09:31:54;;;;;;;6.03;4.63;;;;;;;;;;5133369;28;20442;-57
2021/07/14 09:34:31;;;;;;;4.47;3.00;;;;;;;;;;5133439;28;20465;-55
2021/07/14 09:37:05;;;;;;;5.83;4.87;;;;;;;;;;5128598;28;20453;-58
2021/07/14 09:39:49;;;;;;;4.80;4.30;;;;;;;;;;5134402;28;20910;-56
2021/07/14 09:42:17;;;;;;;5.30;3.00;;;;;;;;;;5134354;28;20482;-58
2021/07/14 09:44:48;;;;;;;4.47;3.60;;;;;;;;;;5135073;28;20437;-59
2021/07/14 09:47:19;;;;;;;3.80;2.70;;;;;;;;;;5125939;28;20455;-58
2021/07/14 09:49:47;;;;;;;5.97;5.10;;;;;;;;;;5125081;28;20469;-54
2021/07/14 09:52:18;;;;;;;6.07;5.40;;;;;;;;;;5133151;28;20426;-60
2021/07/14 09:54:48;;;;;;;5.63;4.03;;;;;;;;;;5133850;28;20453;-59
2021/07/14 09:57:16;;;;;;;5.00;3.90;;;;;;;;;;5133800;28;20465;-60
2021/07/14 09:59:52;;;;;;;5.57;4.17;;;;;;;;;;5124658;28;20446;-55
2021/07/14 10:02:20;;;;;;;12.10;10.87;;;;;;;;;;5133605;28;20485;-58
2021/07/14 10:04:47;;;;;;;5.40;4.83;;;;;;;;;;5133630;28;20484;-59
2021/07/14 10:07:24;;;;;;;6.17;4.07;;;;;;;;;;5133561;28;20443;-59
2021/07/14 10:09:54;;;;;;;6.43;3.80;;;;;;;;;;5127445;28;20446;-60
2021/07/14 10:12:39;;;;;;;6.37;5.43;;;;;;;;;;5126820;28;20462;-56
2021/07/14 10:15:22;;;;;;;7.43;4.43;;;;;;;;;;5126874;28;20482;-59
2021/07/14 10:18:04;;;;;;;6.63;3.53;;;;;;;;;;5129590;27;20458;-59
2021/07/14 10:20:35;;;;;;;5.20;3.80;;;;;;;;;;5145744;27;20671;-53
2021/07/14 10:23:04;;;;;;;5.97;4.43;;;;;;;;;;5119235;28;20498;-56
2021/07/14 10:25:38;;;;;;;6.00;5.27;;;;;;;;;;5128292;28;20584;-56
2021/07/14 10:28:10;;;;;;;5.23;4.23;;;;;;;;;;5119001;28;20454;-58
2021/07/14 10:30:44;;;;;;;5.00;4.40;;;;;;;;;;5133816;28;20480;-59
2021/07/14 10:33:12;;;;;;;6.50;3.90;;;;;;;;;;5133112;28;20525;-57
2021/07/14 10:35:50;;;;;;;4.10;3.70;;;;;;;;;;5133426;28;20477;-60
2021/07/14 10:38:19;;;;;;;6.67;5.37;;;;;;;;;;5136237;28;20484;-59
2021/07/14 10:40:59;;;;;;;8.70;7.17;;;;;;;;;;5151621;27;20445;-60
2021/07/14 10:46:28;;;;;;;5.93;4.80;;;;;;;;;;5115698;28;20449;-55
2021/07/14 10:48:56;;;;;;;9.60;7.37;;;;;;;;;;5126711;28;20812;-58
2021/07/14 10:51:25;;;;;;;7.60;3.80;;;;;;;;;;5113777;28;20447;-58
2021/07/14 10:54:02;;;;;;;5.00;3.80;;;;;;;;;;5112199;28;20475;-59
2021/07/14 10:56:30;;;;;;;5.20;3.47;;;;;;;;;;5110208;28;20510;-57
2021/07/14 10:59:09;;;;;;;4.90;3.97;;;;;;;;;;5113351;28;20451;-59
2021/07/14 11:01:41;;;;;;;6.40;4.57;;;;;;;;;;5092327;28;20519;-56
2021/07/14 11:04:12;;;;;;;9.50;4.43;;;;;;;;;;5092732;28;20432;-56
2021/07/14 11:06:55;;;;;;;11.30;5.53;;;;;;;;;;5112353;28;20494;-59
2021/07/14 11:09:32;;;;;;;6.03;4.30;;;;;;;;;;5112184;28;20462;-59
2021/07/14 11:11:59;;;;;;;6.60;5.07;;;;;;;;;;5111153;28;20545;-57
2021/07/14 11:14:35;;;;;;;4.73;3.10;;;;;;;;;;5102130;28;20460;-57
2021/07/14 11:17:04;;;;;;;3.43;2.33;;;;;;;;;;5107052;28;20519;-55
2021/07/14 11:19:45;;;;;;;2.67;1.80;;;;;;;;;;5092262;28;20465;-57
2021/07/14 11:22:14;;;;;;;2.90;2.00;;;;;;;;;;5091914;28;20488;-58
2021/07/14 11:24:55;;;;;;;3.20;1.80;;;;;;;;;;5090677;28;20436;-52
2021/07/14 11:27:55;;;;;;;3.43;1.57;;;;;;;;;;5089491;28;20464;-56
2021/07/14 11:30:50;;;;;;;2.80;1.80;;;;;;;;;;5094285;28;20451;-57
2021/07/14 11:33:35;;;;;;;7.10;2.37;;;;;;;;;;5093267;28;20440;-59
2021/07/14 11:36:24;;;;;;;3.67;3.27;;;;;;;;;;5092458;28;20464;-58
2021/07/14 11:38:58;;;;;;;2.93;1.60;;;;;;;;;;5109036;28;20455;-56
2021/07/14 11:41:29;;;;;;;4.60;2.13;;;;;;;;;;5095632;28;20459;-58
2021/07/14 11:46:39;;;;;;;4.20;2.87;;;;;;;;;;5110719;28;20453;-55
2021/07/14 11:52:03;;;;;;;5.43;4.90;;;;;;;;;;5106467;28;20509;-58
2021/07/14 11:54:34;;;;;;;4.57;3.97;;;;;;;;;;5102289;28;20444;-60
2021/07/14 11:57:07;;;;;;;6.83;3.50;;;;;;;;;;5116888;28;20521;-60
2021/07/14 11:59:35;;;;;;;4.87;3.07;;;;;;;;;;5104911;28;20456;-59
2021/07/14 12:02:09;;;;;;;4.13;2.00;;;;;;;;;;5096029;28;20543;-58
2021/07/14 12:04:41;;;;;;;4.07;2.40;;;;;;;;;;5110648;28;20454;-58
2021/07/14 12:07:17;;;;;;;3.07;2.20;;;;;;;;;;5114014;28;20463;-57
2021/07/14 12:09:51;;;;;;;3.70;2.20;;;;;;;;;;5095019;28;20511;-57
2021/07/14 12:12:42;;;;;;;12.27;9.90;;;;;;;;;;5107772;28;20452;-58
2021/07/14 12:15:16;;;;;;;7.53;5.20;;;;;;;;;;5116316;28;20552;-60
2021/07/14 12:17:50;;;;;;;4.97;3.47;;;;;;;;;;5136895;28;20430;-58
2021/07/14 12:20:19;;;;;;;4.60;3.57;;;;;;;;;;5135891;28;20429;-59
2021/07/14 12:22:51;;;;;;;2.90;2.30;;;;;;;;;;5135327;28;20480;-57
2021/07/14 12:25:21;;;;;;;5.53;3.90;;;;;;;;;;5135083;28;20454;-56
2021/07/14 12:27:57;;;;;;;5.10;3.70;;;;;;;;;;5134619;28;20458;-61
2021/07/14 12:30:28;;;;;;;5.90;4.93;;;;;;;;;;5122989;28;20457;-55
2021/07/14 12:33:06;;;;;;;4.80;3.20;;;;;;;;;;5136570;28;20462;-60
2021/07/14 12:35:34;;;;;;;3.70;2.97;;;;;;;;;;5120762;28;20486;-57
2021/07/14 12:38:27;;;;;;;7.20;4.37;;;;;;;;;;5115231;28;20546;-58
2021/07/14 12:40:56;;;;;;;8.03;3.40;;;;;;;;;;5111229;28;20471;-60
2021/07/14 12:43:25;;;;;;;7.10;3.30;;;;;;;;;;5094674;28;20488;-57
2021/07/14 12:45:55;;;;;;;3.93;2.30;;;;;;;;;;5106461;28;20463;-56
2021/07/14 12:48:24;;;;;;;7.23;4.23;;;;;;;;;;5115977;28;20482;-59
2021/07/14 12:50:53;;;;;;;5.67;3.50;;;;;;;;;;5100010;28;20486;-56
2021/07/14 12:53:24;;;;;;;5.33;4.03;;;;;;;;;;5076845;28;20448;-60
2021/07/14 12:56:02;;;;;;;4.00;2.83;;;;;;;;;;5093875;28;20466;-58
2021/07/14 12:58:34;;;;;;;3.27;2.00;;;;;;;;;;5097026;28;20506;-61
2021/07/14 13:01:05;;;;;;;2.60;2.17;;;;;;;;;;5093532;28;20555;-59
2021/07/14 13:03:34;;;;;;;4.77;3.27;;;;;;;;;;5102785;28;20539;-58
2021/07/14 13:06:06;;;;;;;5.13;3.73;;;;;;;;;;5096308;28;20464;-59
2021/07/14 13:08:35;;;;;;;3.67;2.43;;;;;;;;;;5110861;28;20459;-54
2021/07/14 13:11:03;;;;;;;5.83;3.00;;;;;;;;;;5092852;28;20468;-58
2021/07/14 13:13:37;;;;;;;4.30;3.83;;;;;;;;;;5093676;28;20471;-56
2021/07/14 13:16:09;;;;;;;4.77;3.70;;;;;;;;;;5104637;28;20468;-58
2021/07/14 13:18:52;;;;;;;4.20;3.00;;;;;;;;;;5099699;28;20637;-55
2021/07/14 13:21:33;;;;;;;6.73;2.57;;;;;;;;;;5093456;28;20456;-60
2021/07/14 13:24:15;;;;;;;3.63;2.70;;;;;;;;;;5098664;28;20538;-56
2021/07/14 13:27:08;;;;;;;6.07;2.93;;;;;;;;;;5101651;28;20490;-57
2021/07/14 13:29:35;;;;;;;5.97;4.50;;;;;;;;;;5098293;28;20467;-55
2021/07/14 13:35:06;;;;;;;7.03;4.30;;;;;;;;;;5091022;28;20476;-57
2021/07/14 13:37:41;;;;;;;5.33;4.47;;;;;;;;;;5098197;28;20550;-60
2021/07/14 13:40:27;;;;;;;4.27;3.63;;;;;;;;;;5108563;28;20447;-56
2021/07/14 13:42:58;;;;;;;4.77;3.73;;;;;;;;;;5103196;28;20468;-57
2021/07/14 13:45:41;;;;;;;7.23;6.30;;;;;;;;;;5092724;28;20460;-59
2021/07/14 13:48:15;;;;;;;4.20;3.40;;;;;;;;;;5103507;28;20526;-59
2021/07/14 13:50:54;;;;;;;3.73;2.17;;;;;;;;;;5092288;28;20527;-55
2021/07/14 13:53:30;;;;;;;7.40;2.80;;;;;;;;;;5092909;28;20472;-57
2021/07/14 13:56:03;;;;;;;4.57;2.63;;;;;;;;;;5110279;28;20467;-55
2021/07/14 13:58:35;;;;;;;5.63;2.40;;;;;;;;;;5113400;28;20511;-54
2021/07/14 14:01:04;;;;;;;5.80;3.60;;;;;;;;;;5093950;28;20470;-59
2021/07/14 14:03:51;;;;;;;9.70;6.80;;;;;;;;;;5112093;28;20466;-58
2021/07/14 14:06:20;;;;;;;5.27;4.03;;;;;;;;;;5126231;28;20458;-58
2021/07/14 14:08:52;;;;;;;5.40;3.23;;;;;;;;;;5113360;28;20443;-57
2021/07/14 14:11:37;;;;;;;5.07;2.67;;;;;;;;;;5130480;28;20451;-59
2021/07/14 14:14:06;;;;;;;5.10;3.20;;;;;;;;;;5116899;28;20494;-57
2021/07/14 14:16:37;;;;;;;4.63;1.80;;;;;;;;;;5115148;28;20431;-60
2021/07/14 14:19:06;;;;;;;5.13;3.70;;;;;;;;;;5114659;28;20466;-58
2021/07/14 14:21:33;;;;;;;7.60;6.23;;;;;;;;;;5124347;28;20438;-58
2021/07/14 14:24:09;;;;;;;11.27;8.37;;;;;;;;;;5134741;28;20470;-60
2021/07/14 14:26:37;;;;;;;9.43;6.63;;;;;;;;;;5115162;28;20451;-55
2021/07/14 14:29:11;;;;;;;5.80;4.47;;;;;;;;;;5114750;28;20467;-56
2021/07/14 14:31:41;;;;;;;3.60;2.67;;;;;;;;;;5119422;28;20485;-57
2021/07/14 14:34:10;;;;;;;5.03;3.27;;;;;;;;;;5123456;28;20496;-60
2021/07/14 14:36:42;;;;;;;5.63;2.50;;;;;;;;;;5133082;28;20462;-59
2021/07/14 14:39:12;;;;;;;4.90;3.17;;;;;;;;;;5113074;28;20486;-54
2021/07/14 14:41:40;;;;;;;3.63;2.00;;;;;;;;;;5109195;28;20451;-56
2021/07/14 14:44:26;;;;;;;4.60;2.93;;;;;;;;;;5115179;28;20765;-58
2021/07/14 14:47:00;;;;;;;4.83;3.40;;;;;;;;;;5110000;28;20508;-58
2021/07/14 14:49:28;;;;;;;9.27;1.80;;;;;;;;;;5102411;28;20460;-56
2021/07/14 14:52:02;;;;;;;6.37;3.37;;;;;;;;;;5113384;28;20470;-58
2021/07/14 14:54:30;;;;;;;6.40;3.47;;;;;;;;;;5107240;28;20483;-58
2021/07/14 14:57:00;;;;;;;8.57;3.77;;;;;;;;;;5097903;28;20460;-59
2021/07/14 14:59:28;;;;;;;12.20;8.00;;;;;;;;;;5107207;28;20442;-61
2021/07/14 15:02:00;;;;;;;2.90;1.80;;;;;;;;;;5095524;28;20461;-57
2021/07/14 15:07:48;;;;;;;5.67;3.67;;;;;;;;;;5093984;28;20510;-59
2021/07/14 15:10:17;;;;;;;2.70;1.10;;;;;;;;;;5093648;28;20492;-58
2021/07/14 15:12:49;;;;;;;7.80;4.77;;;;;;;;;;5097137;28;20459;-59
2021/07/14 15:15:17;;;;;;;4.30;2.53;;;;;;;;;;5117235;28;20473;-54
2021/07/14 15:17:51;;;;;;;5.50;2.20;;;;;;;;;;5114326;28;20453;-56
2021/07/14 15:20:30;;;;;;;7.70;5.70;;;;;;;;;;5097634;28;20435;-59
2021/07/14 15:23:03;;;;;;;3.67;2.03;;;;;;;;;;5097649;28;20491;-56
2021/07/14 15:28:38;;;;;;;11.20;6.20;;;;;;;;;;5097456;28;20464;-56
2021/07/14 15:28:53;;;;;;;3.50;1.20;;;;;;;;;;5108079;28;20465;-57
2021/07/14 15:31:25;;;;;;;2.73;1.20;;;;;;;;;;5138619;28;20518;-56
2021/07/14 15:34:01;;;;;;;5.57;1.43;;;;;;;;;;5101175;28;20455;-61
2021/07/14 15:36:33;;;;;;;34.97;22.43;;;;;;;;;;5102256;28;20447;-60
2021/07/14 15:39:02;;;;;;;12.97;6.80;;;;;;;;;;5115653;28;20475;-60
2021/07/14 15:41:34;;;;;;;29.17;16.60;;;;;;;;;;5109945;28;20434;-58
2021/07/14 15:44:27;;;;;;;36.37;19.87;;;;;;;;;;5128966;28;20477;-56
2021/07/14 15:46:58;;;;;;;125.90;53.33;;;;;;;;;;5113511;28;20495;-61
2021/07/14 15:49:26;;;;;;;67.13;30.57;;;;;;;;;;5117035;28;20459;-57
2021/07/14 15:51:55;;;;;;;89.33;46.23;;;;;;;;;;5114373;28;20454;-60
2021/07/14 15:54:23;;;;;;;13.87;6.60;;;;;;;;;;5103475;28;20476;-57
2021/07/14 15:57:15;;;;;;;70.13;41.33;;;;;;;;;;5096655;28;20479;-63